Create Custom Reports and Graphics: Custom Report

Scotts Valley

Current Conditions

8/9/22 4:30 AM (-07:00)
Updated Every 15 Minutes
Temp 44.3 °F   2.1
RH 94 %   2
Dew Pt 42.8 °F   2.6
Wet Bulb 44.0 °F   2.5
Wind Dir WSW | 257 °
Wind Spd 0.1 mph   0.3
Wind Gust 0.9 mph   0.5
BatVolt 12.6 V   0.0
Monthly Rain 0.01 In
Seasonal Rainfall 0.01 In

Today & Yesterday

Midnight to Midnight

8/9/22 4:30 AM (-07:00)
Updated Every 15 Minutes
Daily Max Temp 50.3 °F   2.2
Time of Max Temp 0101
Daily Min Temp 44.1 °F   2.2
Time of Min Temp 0427
Daily Max Wind 2.3 mph   0.9
Time of Max Wind 0340
Max Wind Dir W | 259 °
Daily Rain 0.00 In
Daily Leaf Wet Hrs 0.3 hrs   2.2
Yest MaxT 91.0 °F
Yest MinT 44.2 °F
Yest MaxGst 12.1 mph
Yest Rain 0.00 In
Leaf Wet Hrs Yest 5.3 Hours

Last 7 Days

Scotts Valley

Hourly Data | America/Los_Angeles
as of 8/9/22 4:33 AM PDT
Date & Time Temp (°F) RH (%) Dew Pt (°F) Wind Dir (°) Wind Spd (mph) Wind Gust (mph) Heat Index (°F) Leaf Wet (mins) BatVolt (V) Latest Rain (In) Rain 24Hr (In) Daily Rain (In) Daily Min Temp (°F) Daily Max Temp (°F) Daily Max Wind (mph) Daily Leaf Wet Hrs (hrs)
8/9/22 - 0400 45.7 94 44.0 S | 181 0.2 2.3 - 0.0 12.6 0.00 - 0.00 45.0 50.3 2.3 0.0
8/9/22 - 0300 47.2 92 44.9 SW | 220 0.2 1.8 - 0.0 12.7 0.00 - 0.00 46.3 50.3 1.8 0.0
8/9/22 - 0200 49.2 89 46.0 SE | 145 0.0 0.7 - 0.0 12.7 0.00 - 0.00 48.1 50.3 0.7 0.0
8/9/22 - 0100 51.6 84 46.8 ESE | 104 0.0 0.9 - 0.0 12.7 0.00 - 0.00 44.2 91.0 12.1 5.3
8/9/22 - 0000 54.6 79 48.3 WSW | 258 0.2 2.2 - 0.0 12.7 0.00 - 0.00 44.2 91.0 12.1 5.3
8/8/22 - 2300 58.8 72 49.8 W | 274 0.2 1.9 - 0.0 12.8 0.00 - 0.00 44.2 91.0 12.1 5.3
8/8/22 - 2200 65.1 61 51.4 NE | 37 0.3 2.7 - 0.0 12.8 0.00 - 0.00 44.2 91.0 12.1 5.3
8/8/22 - 2100 72.2 50 52.4 W | 261 1.6 5.5 - 0.0 12.9 0.00 - 0.00 44.2 91.0 12.1 5.3
8/8/22 - 2000 77.9 43 53.5 W | 279 2.2 8.4 - 0.0 13.0 0.00 - 0.00 44.2 91.0 12.1 5.3
8/8/22 - 1900 83.2 37 54.0 W | 266 3.7 10.7 - 0.0 13.1 0.00 - 0.00 44.2 91.0 12.1 5.3
8/8/22 - 1800 87.5 33 54.6 W | 278 2.7 10.1 - 0.0 13.0 0.00 - 0.00 44.2 91.0 12.1 5.3
8/8/22 - 1700 89.0 30 54.0 WSW | 254 3.2 10.5 - 0.0 13.0 0.00 - 0.00 44.2 91.0 12.1 5.3
8/8/22 - 1600 89.9 25 49.1 SW | 219 3.8 11.5 - 0.0 13.0 0.00 - 0.00 44.2 91.0 12.1 5.3
8/8/22 - 1500 89.0 24 47.1 SW | 220 4.3 12.1 - 0.0 13.0 0.00 - 0.00 44.2 90.6 12.1 5.3
8/8/22 - 1400 87.7 26 48.7 SSW | 196 3.9 9.2 - 0.0 13.0 0.00 - 0.00 44.2 89.5 9.2 5.3
8/8/22 - 1300 86.1 27 48.2 ESE | 117 2.6 7.7 - 0.0 13.0 0.00 - 0.00 44.2 87.3 7.7 5.3
8/8/22 - 1200 82.9 35 52.5 ESE | 116 2.3 7.1 - 0.0 13.1 0.00 - 0.00 44.2 85.4 7.1 5.3
8/8/22 - 1100 77.4 43 53.4 NE | 36 1.6 4.9 - 0.0 13.1 0.00 - 0.00 44.2 80.4 4.9 5.3
8/8/22 - 1000 73.1 51 53.7 ENE | 71 1.2 3.9 - 0.0 13.2 0.00 - 0.00 44.2 76.2 3.9 5.3
8/8/22 - 0900 67.0 63 53.9 ENE | 63 0.5 2.8 - 0.0 13.3 0.00 - 0.00 44.2 70.6 2.8 5.3
8/8/22 - 0800 52.8 94 51.0 NNE | 15 0.1 2.0 - 18.8 13.0 0.00 - 0.00 44.2 61.7 2.0 5.3
8/8/22 - 0700 44.5 97 43.8 WSW | 242 0.2 1.9 - 60.0 12.6 0.00 - 0.00 44.2 52.5 1.9 5.0
8/8/22 - 0600 45.1 96 44.1 WSW | 239 0.2 1.1 - 60.0 12.6 0.00 - 0.00 44.4 52.5 1.4 4.0
8/8/22 - 0500 46.4 96 45.3 SSE | 168 0.3 1.4 - 60.0 12.6 0.00 - 0.00 45.8 52.5 1.4 3.0
8/8/22 - 0400 47.8 95 46.5 ESE | 105 0.0 0.8 - 60.0 12.6 0.00 - 0.00 47.0 52.5 1.4 2.0
8/8/22 - 0300 49.9 95 48.4 ESE | 103 0.1 0.9 - 59.3 12.7 0.00 - 0.00 48.6 52.5 1.4 1.0
8/8/22 - 0200 51.6 93 49.6 E | 80 0.2 1.4 - 0.0 12.7 0.00 - 0.00 50.8 52.5 1.4 0.0
8/8/22 - 0100 54.0 87 50.4 ENE | 72 0.0 1.0 - 0.0 12.7 0.00 - 0.00 44.7 92.0 12.2 0.8
8/8/22 - 0000 57.8 80 51.7 WSW | 251 0.4 2.2 - 0.0 12.7 0.00 - 0.00 44.7 92.0 12.2 0.8
8/7/22 - 2300 63.0 72 53.8 WNW | 282 0.6 2.8 - 0.0 12.8 0.00 - 0.00 44.7 92.0 12.2 0.8
8/7/22 - 2200 68.1 62 54.5 W | 260 0.6 4.9 - 0.0 12.8 0.00 - 0.00 44.7 92.0 12.2 0.8
8/7/22 - 2100 72.4 55 55.5 SW | 232 1.0 5.6 - 0.0 12.9 0.00 - 0.00 44.7 92.0 12.2 0.8
8/7/22 - 2000 78.5 46 56.2 SW | 228 3.2 8.8 - 0.0 13.0 0.00 - 0.00 44.7 92.0 12.2 0.8
8/7/22 - 1900 83.9 39 56.4 SW | 229 4.2 11.2 - 0.0 13.1 0.00 - 0.00 44.7 92.0 12.2 0.8
8/7/22 - 1800 87.7 31 53.7 SW | 214 4.4 12.2 - 0.0 13.0 0.00 - 0.00 44.7 92.0 12.2 0.8
8/7/22 - 1700 89.1 28 51.9 SW | 216 4.3 10.8 - 0.0 13.0 0.00 - 0.00 44.7 92.0 12.0 0.8
8/7/22 - 1600 90.0 26 50.6 SSW | 206 4.2 12.0 - 0.0 13.0 0.00 - 0.00 44.7 92.0 12.0 0.8
8/7/22 - 1500 89.7 27 50.9 SW | 215 4.5 11.6 - 0.0 13.0 0.00 - 0.00 44.7 92.0 11.6 0.8
8/7/22 - 1400 88.4 28 51.6 SSW | 212 4.5 11.4 - 0.0 13.0 0.00 - 0.00 44.7 90.8 11.4 0.8
8/7/22 - 1300 88.3 29 51.6 S | 175 3.9 11.4 - 0.0 13.0 0.00 - 0.00 44.7 89.5 11.4 0.8
8/7/22 - 1200 84.7 38 55.9 SE | 145 3.4 9.8 - 0.0 13.1 0.00 - 0.00 44.7 86.7 9.8 0.8
8/7/22 - 1100 80.1 46 57.3 SE | 128 1.9 6.2 - 0.0 13.1 0.00 - 0.00 44.7 82.7 6.2 0.8
8/7/22 - 1000 75.6 53 57.1 E | 101 1.2 5.5 - 0.0 13.2 0.00 - 0.00 44.7 78.4 5.5 0.8
8/7/22 - 0900 68.3 64 55.8 ENE | 60 0.4 2.4 - 0.0 13.3 0.00 - 0.00 44.7 72.4 2.4 0.8
8/7/22 - 0800 53.7 87 49.6 WSW | 247 0.1 2.0 - 0.0 13.0 0.00 - 0.00 44.7 61.8 2.0 0.8
8/7/22 - 0700 45.1 96 44.0 SSW | 212 0.2 1.6 - 50.6 12.7 0.00 - 0.00 44.7 53.2 1.6 0.8
8/7/22 - 0600 45.5 94 44.0 SW | 225 0.1 1.1 - 0.0 12.6 0.00 - 0.00 45.1 53.2 1.6 0.0
8/7/22 - 0500 46.9 93 45.1 SW | 224 0.1 1.5 - 0.0 12.6 0.00 - 0.00 46.1 53.2 1.6 0.0
8/7/22 - 0400 48.5 92 46.2 SW | 225 0.1 1.6 - 0.0 12.6 0.00 - 0.00 47.6 53.2 1.6 0.0
8/7/22 - 0300 50.4 89 47.5 N | 0 0.0 0.0 - 0.0 12.7 0.00 - 0.00 49.3 53.2 0.0 0.0
8/7/22 - 0200 52.3 89 49.0 N | 0 0.0 0.0 - 0.0 12.7 0.00 - 0.00 51.4 53.2 0.0 0.0
8/7/22 - 0100 54.2 87 50.4 S | 170 0.1 1.1 - 0.0 12.7 0.00 - 0.00 49.9 92.4 13.6 3.1
8/7/22 - 0000 56.1 83 51.0 ENE | 61 0.0 0.9 - 0.0 12.7 0.00 - 0.00 49.9 92.4 13.6 3.1
8/6/22 - 2300 59.0 75 51.2 ENE | 64 0.1 2.0 - 0.0 12.8 0.00 - 0.00 49.9 92.4 13.6 3.1
8/6/22 - 2200 63.5 67 52.1 SSW | 198 0.7 2.6 - 0.0 12.8 0.00 - 0.00 49.9 92.4 13.6 3.1
8/6/22 - 2100 69.7 57 53.9 S | 189 0.8 4.5 - 0.0 12.9 0.00 - 0.00 49.9 92.4 13.6 3.1
8/6/22 - 2000 78.3 44 54.6 SSW | 204 2.4 8.3 - 0.0 13.0 0.00 - 0.00 49.9 92.4 13.6 3.1
8/6/22 - 1900 84.1 33 52.0 SW | 216 3.9 11.1 - 0.0 13.1 0.00 - 0.00 49.9 92.4 13.6 3.1
8/6/22 - 1800 86.9 26 48.3 SW | 217 4.1 13.6 - 0.0 13.0 0.00 - 0.00 49.9 92.4 13.6 3.1
8/6/22 - 1700 88.4 27 50.0 SW | 216 4.5 12.0 - 0.0 13.0 0.00 - 0.00 49.9 92.4 13.2 3.1
8/6/22 - 1600 89.4 29 52.7 SSW | 208 4.3 13.2 - 0.0 13.0 0.00 - 0.00 49.9 92.4 13.2 3.1
8/6/22 - 1500 90.1 27 51.8 SSE | 149 4.0 10.3 - 0.0 13.0 0.00 - 0.00 49.9 92.4 12.4 3.1
8/6/22 - 1400 88.0 24 46.9 ESE | 120 3.8 12.4 - 0.0 13.0 0.00 - 0.00 49.9 89.9 12.4 3.1
8/6/22 - 1300 85.1 29 49.3 ESE | 120 4.3 12.3 - 0.0 13.1 0.00 - 0.00 49.9 86.5 12.3 3.1
8/6/22 - 1200 81.2 44 57.2 SE | 141 3.5 11.1 - 0.0 13.1 0.00 - 0.00 49.9 83.8 11.1 3.1
8/6/22 - 1100 75.4 55 58.3 ESE | 120 2.2 6.9 - 0.0 13.2 0.00 - 0.00 49.9 78.2 6.9 3.1
8/6/22 - 1000 71.3 61 57.3 ESE | 108 1.8 5.9 - 0.0 13.2 0.00 - 0.00 49.9 73.3 5.9 3.1
8/6/22 - 0900 67.4 73 58.2 NE | 47 1.4 5.9 - 0.0 13.3 0.00 - 0.00 49.9 69.3 5.9 3.1
8/6/22 - 0800 57.1 95 55.6 N | 3 0.3 3.2 - 15.4 13.0 0.00 - 0.00 49.9 64.0 3.2 3.1
8/6/22 - 0700 50.3 97 49.5 SW | 218 0.1 1.0 - 60.0 12.7 0.00 - 0.00 49.9 56.5 2.1 2.8
8/6/22 - 0600 51.0 96 50.0 SW | 232 0.5 1.9 - 60.0 12.6 0.00 - 0.00 50.4 56.5 2.1 1.8
8/6/22 - 0500 52.6 95 51.3 SW | 231 0.3 2.1 - 48.2 12.6 0.00 - 0.00 51.6 56.5 2.1 0.8
8/6/22 - 0400 53.7 96 52.5 WSW | 247 0.5 2.0 - 0.0 12.6 0.00 - 0.00 53.1 56.5 2.0 0.0
8/6/22 - 0300 54.4 94 52.7 SSE | 157 0.2 1.4 - 0.0 12.7 0.00 - 0.00 53.6 56.5 1.4 0.0
8/6/22 - 0200 55.8 93 53.8 SSE | 158 0.2 1.4 - 0.0 12.7 0.00 - 0.00 55.2 56.5 1.4 0.0
8/6/22 - 0100 57.3 90 54.5 SW | 214 0.1 1.3 - 0.0 12.7 0.00 - 0.00 52.8 92.3 16.4 0.0
8/6/22 - 0000 59.2 88 55.7 SSW | 212 0.1 1.2 - 0.0 12.7 0.00 - 0.00 52.8 92.3 16.4 0.0
8/5/22 - 2300 62.0 82 56.4 S | 185 0.2 1.2 - 0.0 12.8 0.00 - 0.00 52.8 92.3 16.4 0.0
8/5/22 - 2200 66.4 74 58.0 SSE | 165 1.1 3.7 - 0.0 12.8 0.00 - 0.00 52.8 92.3 16.4 0.0
8/5/22 - 2100 70.5 66 58.8 SSE | 158 1.3 4.1 - 0.0 12.9 0.00 - 0.00 52.8 92.3 16.4 0.0
8/5/22 - 2000 76.0 57 59.8 SW | 227 3.7 13.4 - 0.0 13.0 0.00 - 0.00 52.8 92.3 16.4 0.0
8/5/22 - 1900 80.7 49 59.6 SW | 222 5.7 14.4 - 0.0 13.1 0.00 - 0.00 52.8 92.3 16.4 0.0
8/5/22 - 1800 84.6 43 59.7 SW | 225 5.4 16.4 - 0.0 13.1 0.00 - 0.00 52.8 92.3 16.4 0.0
8/5/22 - 1700 87.9 37 58.3 SW | 220 5.2 15.1 - 0.0 13.0 0.00 - 0.00 52.8 92.3 15.1 0.0
8/5/22 - 1600 90.5 34 57.9 S | 178 4.9 14.6 - 0.0 13.0 0.00 - 0.00 52.8 92.3 14.6 0.0
8/5/22 - 1500 90.5 33 57.7 SE | 125 4.1 14.5 - 0.0 13.0 0.00 - 0.00 52.8 92.3 14.5 0.0
8/5/22 - 1400 87.8 35 56.5 E | 97 4.0 11.1 - 0.0 13.0 0.00 - 0.00 52.8 89.3 12.9 0.0
8/5/22 - 1300 85.8 30 50.5 ESE | 105 4.2 12.9 - 0.0 13.0 0.00 - 0.00 52.8 87.6 12.9 0.0
8/5/22 - 1200 86.0 20 40.8 SE | 131 2.8 8.6 - 0.0 13.1 0.00 - 0.00 52.8 87.6 8.6 0.0
8/5/22 - 1100 82.8 22 40.2 SE | 138 2.4 6.1 - 0.0 13.1 0.00 - 0.00 52.8 84.4 8.3 0.0
8/5/22 - 1000 80.1 20 35.6 SSE | 163 2.9 8.3 - 0.0 13.2 0.00 - 0.00 52.8 82.4 8.3 0.0
8/5/22 - 0900 72.7 45 49.6 ENE | 66 0.9 5.4 - 0.0 13.3 0.00 - 0.00 52.8 77.2 5.4 0.0
8/5/22 - 0800 61.3 69 50.8 SSW | 201 0.4 2.5 - 0.0 12.9 0.00 - 0.00 52.8 66.9 2.5 0.0
8/5/22 - 0700 53.6 78 46.9 SSW | 204 0.1 1.1 - 0.0 12.7 0.00 - 0.00 52.8 58.2 2.4 0.0
8/5/22 - 0600 53.4 77 46.5 N | 357 0.3 2.3 - 0.0 12.6 0.00 - 0.00 52.8 58.2 2.4 0.0
8/5/22 - 0500 54.3 74 46.2 SE | 140 0.1 1.0 - 0.0 12.6 0.00 - 0.00 53.6 58.2 2.4 0.0
8/5/22 - 0400 55.4 70 45.6 SE | 141 0.3 2.4 - 0.0 12.6 0.00 - 0.00 55.2 58.2 2.4 0.0
8/5/22 - 0300 56.0 67 45.2 S | 178 0.3 1.9 - 0.0 12.6 0.00 - 0.00 55.6 58.2 2.1 0.0
8/5/22 - 0200 57.5 69 47.4 SSE | 165 0.2 2.1 - 0.0 12.7 0.00 - 0.00 56.8 58.2 2.1 0.0
8/5/22 - 0100 59.0 70 49.2 SSE | 155 0.2 2.6 - 0.0 12.7 0.00 - 0.00 55.8 97.8 14.7 0.0
8/5/22 - 0000 61.0 69 50.7 NNE | 21 0.0 1.0 - 0.0 12.7 0.00 - 0.00 55.8 97.8 14.7 0.0
8/4/22 - 2300 64.2 64 51.5 SE | 136 0.4 2.0 - 0.0 12.7 0.00 - 0.00 55.8 97.8 14.7 0.0
8/4/22 - 2200 68.6 54 51.3 S | 169 0.5 3.2 - 0.0 12.8 0.00 - 0.00 55.8 97.8 14.7 0.0
8/4/22 - 2100 75.6 46 53.2 SSE | 161 1.6 3.4 - 0.0 12.8 0.00 - 0.00 55.8 97.8 14.7 0.0
8/4/22 - 2000 84.7 35 54.0 S | 172 1.2 4.5 - 0.0 12.9 0.00 - 0.00 55.8 97.8 14.7 0.0
8/4/22 - 1900 89.8 28 52.6 SW | 214 3.3 10.5 - 0.0 13.0 0.00 - 0.00 55.8 97.8 14.7 0.0
8/4/22 - 1800 92.6 30 56.3 SSW | 207 5.3 13.9 - 0.0 13.0 0.00 - 0.00 55.8 97.8 14.7 0.0
8/4/22 - 1700 95.0 27 55.4 SW | 215 5.2 14.7 - 0.0 13.0 0.00 - 0.00 55.8 97.8 14.7 0.0
8/4/22 - 1600 94.7 22 50.2 SW | 223 5.9 14.6 - 0.0 13.0 0.00 - 0.00 55.8 97.8 14.7 0.0
8/4/22 - 1500 94.3 25 53.4 SW | 214 5.3 14.5 - 0.0 13.0 0.00 - 0.00 55.8 97.8 14.7 0.0
8/4/22 - 1400 96.6 28 58.1 SSW | 210 4.5 14.7 - 0.0 13.0 0.00 - 0.00 55.8 97.8 14.7 0.0
8/4/22 - 1300 96.8 29 59.5 S | 176 3.3 10.1 - 0.0 13.0 0.00 - 0.00 55.8 97.8 10.1 0.0
8/4/22 - 1200 94.7 32 60.6 SE | 145 2.9 7.9 - 0.0 13.0 0.00 - 0.00 55.8 96.8 7.9 0.0
8/4/22 - 1100 89.5 38 60.9 ESE | 113 1.7 5.3 - 0.0 13.0 0.00 - 0.00 55.8 93.0 5.3 0.0
8/4/22 - 1000 82.9 45 59.6 NE | 48 0.7 3.5 - 0.0 13.1 0.00 - 0.00 55.8 85.2 3.5 0.0
8/4/22 - 0900 77.8 54 59.5 NE | 54 0.4 2.1 - 0.0 13.2 0.00 - 0.00 55.8 82.2 2.1 0.0
8/4/22 - 0800 64.8 77 57.1 NE | 51 0.1 1.2 - 0.0 12.9 0.00 - 0.00 55.8 72.5 1.4 0.0
8/4/22 - 0700 56.1 90 53.2 SSE | 162 0.0 0.9 - 0.0 12.7 0.00 - 0.00 55.8 62.2 1.4 0.0
8/4/22 - 0600 56.8 88 53.2 N | 0 0.0 0.0 - 0.0 12.6 0.00 - 0.00 56.1 62.2 1.4 0.0
8/4/22 - 0500 57.7 86 53.5 SE | 146 0.0 1.0 - 0.0 12.6 0.00 - 0.00 57.3 62.2 1.4 0.0
8/4/22 - 0400 58.7 84 53.9 SE | 137 0.1 1.4 - 0.0 12.6 0.00 - 0.00 58.1 62.2 1.4 0.0
8/4/22 - 0300 59.9 83 54.6 NNW | 334 0.0 0.8 - 0.0 12.7 0.00 - 0.00 59.3 62.2 0.8 0.0
8/4/22 - 0200 61.4 80 55.0 ESE | 114 0.0 0.8 - 0.0 12.7 0.00 - 0.00 60.7 62.2 0.8 0.0
8/4/22 - 0100 63.2 75 55.3 SSE | 166 0.2 1.5 - 0.0 12.7 0.00 - 0.00 57.6 102.3 16.2 0.0
8/4/22 - 0000 65.6 70 55.5 SW | 217 0.2 1.8 - 0.0 12.7 0.00 - 0.00 57.6 102.3 16.2 0.0
8/3/22 - 2300 68.8 64 56.0 SSW | 210 0.2 1.6 - 0.0 12.7 0.00 - 0.00 57.6 102.3 16.2 0.0
8/3/22 - 2200 74.4 51 55.2 S | 171 0.4 3.2 - 0.0 12.8 0.00 - 0.00 57.6 102.3 16.2 0.0
8/3/22 - 2100 81.2 40 54.2 WSW | 252 1.1 6.9 - 0.0 12.8 0.00 - 0.00 57.6 102.3 16.2 0.0
8/3/22 - 2000 87.7 34 55.7 W | 267 2.9 9.1 - 0.0 12.9 0.00 - 0.00 57.6 102.3 16.2 0.0
8/3/22 - 1900 92.6 31 58.0 W | 270 3.0 10.1 - 0.0 13.0 0.00 - 0.00 57.6 102.3 16.2 0.0
8/3/22 - 1800 95.7 31 60.6 W | 277 3.2 11.4 - 0.0 13.0 0.00 - 0.00 57.6 102.3 16.2 0.0
8/3/22 - 1700 98.6 27 58.8 SW | 232 3.7 16.2 - 0.0 12.9 0.00 - 0.00 57.6 102.3 16.2 0.0
8/3/22 - 1600 99.5 27 59.2 SW | 216 3.3 11.0 - 0.0 12.9 0.00 - 0.00 57.6 102.3 11.0 0.0
8/3/22 - 1500 98.3 26 58.0 SE | 135 2.7 6.9 - 0.0 13.0 0.00 - 0.00 57.6 100.6 6.9 0.0
8/3/22 - 1400 95.3 30 58.7 SSE | 163 2.0 6.6 - 0.0 13.0 0.00 - 0.00 57.6 97.4 6.6 0.0
8/3/22 - 1300 90.8 34 58.9 SE | 130 2.0 5.8 - 0.0 13.0 0.00 - 0.00 57.6 93.5 6.0 0.0
8/3/22 - 1200 86.1 42 59.9 SE | 146 2.1 6.0 - 0.0 13.1 0.00 - 0.00 57.6 90.8 6.0 0.0
8/3/22 - 1100 83.2 44 58.8 SE | 146 1.6 4.2 - 0.0 13.2 0.00 - 0.00 57.6 84.3 4.2 0.0
8/3/22 - 1000 79.9 47 57.7 S | 171 0.7 2.8 - 0.0 13.2 0.00 - 0.00 57.6 81.9 3.0 0.0
8/3/22 - 0900 74.1 56 57.4 NNW | 328 0.5 3.0 - 0.0 13.3 0.00 - 0.00 57.6 79.2 3.0 0.0
8/3/22 - 0800 62.5 79 55.7 ENE | 69 0.3 2.0 - 0.0 13.2 0.00 - 0.00 57.6 70.0 2.0 0.0
8/3/22 - 0700 57.9 84 53.2 SE | 144 0.2 1.2 - 0.0 12.7 0.00 - 0.00 57.6 61.4 2.0 0.0
8/3/22 - 0600 58.6 82 53.2 S | 185 0.2 1.8 - 0.0 12.6 0.00 - 0.00 57.9 61.4 2.0 0.0
8/3/22 - 0500 58.4 82 52.9 ESE | 108 0.3 1.8 - 0.0 12.7 0.00 - 0.00 57.9 61.4 2.0 0.0
8/3/22 - 0400 58.1 82 52.8 S | 183 0.3 1.9 - 0.0 12.7 0.00 - 0.00 57.9 61.4 2.0 0.0
8/3/22 - 0300 59.2 80 53.0 S | 170 0.0 0.9 - 0.0 12.7 0.00 - 0.00 58.2 61.4 2.0 0.0
8/3/22 - 0200 61.0 77 53.9 SW | 221 0.3 2.0 - 0.0 12.7 0.00 - 0.00 60.4 61.4 2.0 0.0
8/3/22 - 0100 62.0 75 54.1 SSW | 199 0.5 2.0 - 0.0 12.7 0.00 - 0.00 55.5 98.6 13.4 6.0
8/3/22 - 0000 64.8 69 54.2 S | 171 0.4 1.6 - 0.0 12.7 0.00 - 0.00 55.5 98.6 13.4 6.0
8/2/22 - 2300 68.2 60 53.6 S | 185 0.4 2.3 - 0.0 12.7 0.00 - 0.00 55.5 98.6 13.4 6.0
8/2/22 - 2200 73.2 48 52.4 WNW | 282 0.8 3.7 - 0.0 12.8 0.00 - 0.00 55.5 98.6 13.4 6.0
8/2/22 - 2100 76.5 46 53.9 NW | 322 0.6 3.9 - 0.0 12.8 0.00 - 0.00 55.5 98.6 13.4 6.0
8/2/22 - 2000 82.5 41 56.5 NNW | 339 1.5 7.5 - 0.0 12.9 0.00 - 0.00 55.5 98.6 13.4 6.0
8/2/22 - 1900 88.2 36 58.1 W | 280 3.1 9.9 - 0.0 13.0 0.00 - 0.00 55.5 98.6 13.4 6.0
8/2/22 - 1800 91.8 33 58.7 W | 259 4.3 13.4 - 0.0 13.0 0.00 - 0.00 55.5 98.6 13.4 6.0
8/2/22 - 1700 94.8 30 58.8 SW | 230 5.2 13.0 - 0.0 13.0 0.00 - 0.00 55.5 98.6 13.0 6.0
8/2/22 - 1600 97.0 27 57.4 SSW | 197 3.0 9.2 - 0.0 13.0 0.00 - 0.00 55.5 98.6 11.5 6.0
8/2/22 - 1500 95.4 28 56.8 SW | 226 3.1 8.8 - 0.0 13.0 0.00 - 0.00 55.5 96.9 11.5 6.0
8/2/22 - 1400 93.8 31 58.8 S | 179 3.0 11.5 - 0.0 13.0 0.00 - 0.00 55.5 94.9 11.5 6.0
8/2/22 - 1300 91.8 32 57.4 E | 88 2.4 7.6 - 0.0 13.0 0.00 - 0.00 55.5 94.0 7.6 6.0
8/2/22 - 1200 88.9 38 59.8 SE | 131 2.2 6.2 - 0.0 13.0 0.00 0.01 0.00 55.5 90.3 6.2 6.0
8/2/22 - 1100 83.9 50 63.3 S | 178 1.6 5.4 85.0 0.0 13.1 0.00 0.01 0.00 55.5 86.4 5.4 6.0
8/2/22 - 1000 78.5 63 64.8 ENE | 59 0.8 3.1 - 0.0 13.2 0.00 0.01 0.00 55.5 82.2 3.1 6.0
8/2/22 - 0900 69.4 81 63.4 ESE | 112 0.0 1.0 - 0.0 13.4 0.00 0.01 0.00 55.5 73.7 1.8 6.0
8/2/22 - 0800 62.0 98 61.4 SW | 221 0.0 0.8 - 11.6 13.1 0.00 0.01 0.00 55.5 66.1 1.8 6.0
8/2/22 - 0700 56.8 98 56.2 WSW | 238 0.1 1.1 - 60.0 12.8 0.00 0.01 0.00 55.5 60.8 1.8 5.8
8/2/22 - 0600 55.9 97 55.1 N | 0 0.0 0.0 - 60.0 12.7 0.00 0.01 0.00 55.5 60.8 1.8 4.8
8/2/22 - 0500 56.7 97 55.8 WSW | 257 0.0 1.2 - 60.0 12.7 0.00 0.01 0.00 56.4 60.8 1.8 3.8
Max 99.5 98 64.8 - 5.9 16.4 - 60.0 13.4 0.00 0.01 0.00 60.7 102.3 16.4 6.0
Avg 72.2 58 53.3 - 1.7 5.6 - 4.4 12.9 0.00 0.01 - - - - -
Min 44.5 20 35.6 - 0.0 0.0 - 0.0 12.6 0.00 0.01 0.00 44.2 50.3 0.0 0.0
Total - - - - - - - - - 0.00 - - - - - -

Last 30 Days

Scotts Valley

Daily Data | America/Los_Angeles
as of 8/9/22 4:33 AM PDT
Date Daily Max Temp (°F) Time of Max Temp Daily Min Temp (°F) Time of Min Temp Daily Rain (In) Monthly Rain (In) Seasonal Rainfall (In) Daily Max Wind (mph) Time of Max Wind Max Wind Dir (°) Wind Spd (mph) Dew Pt (°F) Max RH (%) Min RH (%) Daily Leaf Wet Hrs (hrs) Degree Hrs (hrs) Chilling <=45F (hrs) Chill Hrs 32-45F (hrs) Utah Chilling (Units) Hrs <= 32F (hrs) Hrs <= 28F (hrs) GDDs (DL) GDDs (Mx/Mn) Seas GDDs (DL) Seas GDDs (Smpl) Hrs 70-85F (hrs) Hrs > 95F (hrs) Powdery Mildew Stress (pts) Bee Hrs Today (Hrs) Daily Max Rain Intensity (In/Hr) Time of Max Rain Intensity Max 1 Min Rain (In) Max 1 Min Rain Time Max 15 Min Rain (In) Max 15 Min Precip Time Max 60 Min Rain (In) Max 60 Min Rain Time MinBV Day (V)
8/8/22 91.0 1524 44.2 0627 0.00 0.01 0.01 12.1 1459 S | 182 1.5 50.0 99 20 5.3 218.0 1.6 1.6 -8.0 0.0 0.0 18.7 17.6 1,817 1,531 3.12 0.00 0 12.3 - - - - - - - - 12.4
8/7/22 92.0 1453 44.7 0620 0.00 0.01 0.01 12.2 1715 WNW | 292 1.8 51.7 98 24 0.8 234.8 0.5 0.5 -9.5 0.0 0.0 19.9 18.4 1,798 1,513 3.00 0.00 0 12.4 - - - - - - - - 12.5
8/6/22 92.4 1438 49.9 0621 0.00 0.01 0.01 13.6 1715 WSW | 238 1.8 52.5 99 21 3.1 210.2 0.0 0.0 -11.5 0.0 0.0 19.3 21.1 1,778 1,495 3.24 0.00 0 12.6 - - - - - - - - 12.5
8/5/22 92.3 1450 52.8 0539 0.00 0.01 0.01 16.4 1742 WSW | 238 2.1 51.6 92 15 0.0 232.4 0.0 0.0 -14.0 0.0 0.0 21.4 22.6 1,759 1,473 3.12 0.00 0 12.8 - - - - - - - - 12.5
8/4/22 97.8 1236 55.8 0629 0.00 0.01 0.01 14.7 1350 S | 174 1.8 54.8 92 18 0.0 323.6 0.0 0.0 -16.0 0.0 0.0 26.4 26.8 1,738 1,451 2.13 3.55 0 13.4 - - - - - - - - 12.5
8/3/22 102.3 1519 57.6 0639 0.00 0.01 0.01 16.2 1641 WSW | 240 1.3 56.4 89 23 0.0 331.7 0.0 0.0 -17.5 0.0 0.0 27.1 30.0 1,711 1,424 3.17 4.24 0 13.4 - - - - - - - - 12.5
8/2/22 98.6 1530 55.5 0539 0.00 0.01 0.01 13.4 1713 WNW | 296 1.4 57.6 99 24 6.0 299.0 0.0 0.0 -16.5 0.0 0.0 25.3 27.0 1,684 1,394 2.81 2.17 10 13.5 - - - - - - - - 12.5
8/1/22 79.4 1034 60.5 0037 0.01 0.01 0.01 6.0 1119 ENE | 66 0.7 62.9 97 56 0.7 159.7 0.0 0.0 -21.5 0.0 0.0 21.3 19.9 1,659 1,367 12.56 0.00 20 12.5 0.01 1258 0.01 1259 0.01 1259 0.01 1259 12.5
7/31/22 99.1 1528 62.9 0435 0.00 0.00 0.00 13.6 1837 WSW | 250 1.8 61.4 87 28 0.0 351.2 0.0 0.0 -22.5 0.0 0.0 29.5 31.0 1,638 1,347 5.61 3.26 0 13.6 - - - - - - - - 12.5
7/30/22 101.8 1540 59.5 0446 0.00 0.00 0.00 12.2 1708 SSW | 199 1.3 60.6 91 24 0.0 357.9 0.0 0.0 -19.5 0.0 0.0 29.0 30.7 1,608 1,316 3.67 4.01 0 13.6 - - - - - - - - 12.5
7/29/22 105.4 1418 56.9 0627 0.00 0.00 0.00 14.1 1535 WSW | 251 1.5 59.4 92 21 0.0 411.0 0.0 0.0 -19.5 0.0 0.0 30.8 31.1 1,579 1,285 2.10 7.64 0 13.6 - - - - - - - - 12.5
7/28/22 103.1 1517 54.1 0538 0.00 0.00 0.00 15.4 1716 WNW | 283 1.6 55.1 84 20 0.0 384.8 0.0 0.0 -17.0 0.0 0.0 28.9 28.6 1,548 1,254 1.98 6.49 0 13.4 - - - - - - - - 12.5
7/27/22 99.9 1423 50.8 0626 0.00 0.00 0.00 14.9 1738 WSW | 246 1.5 50.2 97 12 0.0 341.2 0.0 0.0 -14.5 0.0 0.0 26.0 25.4 1,519 1,226 2.24 4.85 0 12.8 - - - - - - - - 12.5
7/26/22 100.2 1449 53.6 0634 0.00 0.00 0.00 14.5 1616 WSW | 237 1.7 53.7 90 14 0.0 327.6 0.0 0.0 -16.5 0.0 0.0 26.3 26.9 1,494 1,200 2.55 3.53 0 13.5 - - - - - - - - 12.5
7/25/22 99.9 1418 49.1 0613 0.00 0.00 0.00 12.4 1731 SW | 218 1.6 50.6 88 14 0.0 333.8 0.0 0.0 -13.0 0.0 0.0 25.0 24.5 1,467 1,173 2.20 4.93 0 12.9 - - - - - - - - 12.4
7/24/22 100.6 1434 46.5 0632 0.00 0.00 0.00 12.4 1442 SW | 224 1.6 47.6 91 7 0.0 342.3 0.0 0.0 -10.5 0.0 0.0 24.9 23.6 1,442 1,149 2.05 5.61 0 12.8 - - - - - - - - 12.5
7/23/22 101.0 1521 41.6 0618 0.00 0.00 0.00 12.4 1606 WSW | 256 1.3 43.6 95 10 0.0 311.5 3.8 3.8 -8.5 0.0 0.0 23.0 21.3 1,417 1,125 2.55 3.94 0 12.8 - - - - - - - - 12.5
7/22/22 95.8 1531 41.5 0613 0.00 0.00 0.00 14.9 1649 W | 270 1.5 41.1 89 9 0.0 288.8 3.2 3.2 -8.0 0.0 0.0 21.7 18.6 1,394 1,104 2.28 0.43 0 12.7 - - - - - - - - 12.5
7/21/22 98.3 1408 42.0 0625 0.00 0.00 0.00 14.5 1630 WSW | 248 1.5 40.3 88 10 0.0 313.7 3.6 3.6 -8.5 0.0 0.0 23.0 20.1 1,373 1,085 2.40 3.62 0 12.8 - - - - - - - - 12.5
7/20/22 100.9 1530 40.4 0604 0.00 0.00 0.00 12.8 1725 W | 266 1.4 40.6 90 10 0.0 330.3 4.4 4.4 -8.5 0.0 0.0 23.8 20.6 1,350 1,065 2.36 4.92 0 12.8 - - - - - - - - 12.6
7/19/22 99.2 1523 42.4 0630 0.00 0.00 0.00 13.9 1741 SSW | 206 1.6 42.6 89 10 0.0 307.4 2.4 2.4 -8.0 0.0 0.0 22.4 20.8 1,326 1,045 2.26 3.12 0 12.8 - - - - - - - - 12.5
7/18/22 99.2 1541 47.4 0604 0.00 0.00 0.00 13.8 1738 SW | 236 1.7 46.7 94 9 0.0 319.8 0.0 0.0 -11.5 0.0 0.0 23.6 23.3 1,303 1,024 2.45 3.78 0 13.0 - - - - - - - - 12.4
7/17/22 99.2 1449 45.9 0541 0.00 0.00 0.00 15.6 1557 SW | 227 1.6 49.0 97 13 0.0 325.2 0.0 0.0 -9.5 0.0 0.0 23.8 22.5 1,280 1,001 2.34 3.85 0 12.9 - - - - - - - - 12.5
7/16/22 102.1 1606 44.1 0611 0.00 0.00 0.00 12.7 1835 NNW | 327 1.2 48.7 99 9 1.0 328.3 1.7 1.7 -8.5 0.0 0.0 23.7 23.1 1,256 978 2.31 4.32 0 12.9 - - - - - - - - 12.4
7/15/22 97.2 1412 42.6 0621 0.00 0.00 0.00 13.2 1502 WSW | 257 1.3 47.8 99 16 2.6 281.4 3.4 3.4 -7.5 0.0 0.0 21.4 19.9 1,232 955 2.67 1.65 10 12.8 - - - - - - - - 12.5
7/14/22 95.2 1618 48.7 0057 0.00 0.00 0.00 12.6 1338 W | 273 1.5 52.8 99 24 2.4 277.4 0.0 0.0 -11.5 0.0 0.0 22.1 22.0 1,211 935 2.88 0.06 20 13.2 - - - - - - - - 12.4
7/13/22 91.4 1410 45.8 0553 0.00 0.00 0.00 13.4 1531 WSW | 249 1.7 53.9 99 25 1.9 257.0 0.0 0.0 -11.0 0.0 0.0 21.4 18.6 1,189 913 3.34 0.00 30 13.0 - - - - - - - - 12.6
7/12/22 95.8 1444 49.1 0556 0.00 0.00 0.00 13.2 1705 SSW | 210 1.6 51.8 98 10 1.0 302.6 0.0 0.0 -13.5 0.0 0.0 23.8 22.4 1,168 894 3.39 1.18 40 13.2 - - - - - - - - 12.5
7/11/22 103.9 1532 51.9 0605 0.00 0.00 0.00 14.6 1822 W | 270 1.6 54.1 98 16 0.2 363.3 0.0 0.0 -14.0 0.0 0.0 27.0 27.9 1,144 872 1.76 5.92 50 13.3 - - - - - - - - 12.5
7/10/22 98.7 1609 46.1 0601 0.00 0.00 0.00 14.0 1624 W | 261 1.2 53.1 98 18 2.2 314.3 0.0 0.0 -11.0 0.0 0.0 23.7 22.4 1,117 844 2.78 3.87 60 13.0 - - - - - - - - 12.5
Max 105.4 - 62.9 - 0.01 0.01 0.01 16.4 - - 2.1 62.9 99 56 6.0 411.0 4.4 4.4 -7.5 0.0 0.0 30.8 31.1 - - 12.56 7.64 - 13.6 - - - - - - - - 12.6
Avg - - - - - 0.00 - - - - 1.5 51.4 - - - - 0.8 0.8 -12.9 0.0 0.0 24.1 23.6 - - 3.04 3.03 - 13.0 - - - - - - - - -
Min 79.4 - 40.4 - 0.00 0.00 0.00 6.0 - - 0.7 40.3 84 7 0.0 159.7 0.0 0.0 -22.5 0.0 0.0 18.7 17.6 - - 1.76 0.00 - 12.3 - - - - - - - - 12.4
Total - - - - - - - - - - - - - - - - 24.6 24.6 -387.0 0.0 0.0 723.8 708.9 - - 91.28 90.93 - 390.5 - - - - - - - - -

Climate Summary

Scotts Valley

Current Year | Showing 1/1/22 - 8/8/22
as of 8/9/22 4:33 AM PDT
Temperature (°F) Max Wind Gust (mph) Precip (in) Days
Month Days Avg High Avg Low Max Min Avg Max Total Daily Min Temp < 28 Daily Min Temp < 32 Daily Max Temp > 90 Daily Max Temp > 100 Daily Rain > 0.01 Daily Rain > 0.1
Jan 2022 31 62.3 27.6 72 19.6 10.8 28.3 0.52 18 26 0 0 4 2
Feb 2022 28 67.3 24.7 80.3 14.4 11.1 23 0.11 18 28 0 0 1 1
Mar 2022 31 68.2 31.4 85 21.1 14.9 24.8 0.66 8 15 0 0 5 3
Apr 2022 30 66.5 32.7 88 26.9 15.2 30.8 1.88 2 15 0 0 7 6
May 2022 31 75.2 36.3 95.7 25.3 16.1 25.4 0.08 3 8 2 0 1 0
Jun 2022 30 85.7 43.5 102.7 33.2 15.1 22 0.59 0 0 10 1 2 2
Jul 2022 31 94.5 47.2 105.4 40.4 14.1 17 0 0 0 23 9 0 0
Aug 2022 8 93.2 52.6 102.3 44.2 13.1 16.4 0.01 0 0 7 1 0 0
Total 220 - - - - - - 3.85 49 92 42 11 20 14
Average 27.5 75 35.5 75 35.5 13.9 - 0.48 6.1 11.5 5.2 1.4 2.5 1.8
Maximum 31 94.5 52.6 105.4 - - 30.8 1.88 18 28 23 9 7 6
Minimum 8 62.3 24.7 - 14.4 - - 0 0 0 0 0 0 0

Climate Summary

Scotts Valley

Last Year | Showing 1/1/21 - 12/31/21
as of 8/9/22 4:33 AM PDT
Temperature (°F) Max Wind Gust (mph) Precip (in) Days
Month Days Avg High Avg Low Max Min Avg Max Total Daily Min Temp < 28 Daily Min Temp < 32 Daily Max Temp > 90 Daily Max Temp > 100 Daily Rain > 0.01 Daily Rain > 0.1
Jan 2021 31 56.4 31 78.2 16.7 12.1 31.4 3.73 8 20 0 0 16 5
Feb 2021 28 61.3 29.2 73.9 22.3 13.1 21.7 1.92 14 21 0 0 10 5
Mar 2021 31 62 28.2 78.9 22.3 15.1 22 2.2 14 26 0 0 6 5
Apr 2021 30 74.9 32.1 88.8 26.6 15.7 24.1 0.1 4 17 0 0 1 0
May 2021 31 81.7 38.9 102.4 28.8 17.1 26 0.12 0 2 3 1 2 0
Jun 2021 30 90.8 45.7 107.9 30.3 16.2 21.2 0 0 1 18 6 0 0
Jul 2021 31 100 50.1 108.7 42.4 15.1 17.4 0 0 0 31 15 0 0
Aug 2021 31 97.5 47.8 108.7 39 15.2 20.2 0 0 0 27 11 0 0
Sep 2021 30 91.4 42.5 103.3 31.2 13.5 20.1 0.09 0 1 18 4 1 0
Oct 2021 31 71.7 37.7 94.7 28.3 13.4 27 2.06 0 11 4 0 10 6
Nov 2021 30 66.4 33 76.6 22 8.7 16.6 1.76 6 12 0 0 6 4
Dec 2021 31 52.7 30.7 76.2 21.3 12.3 22.4 6.28 13 20 0 0 15 12
Total 365 - - - - - - 18.26 59 131 101 37 67 37
Average 30.4 75.6 37.3 75.6 37.3 14 - 1.52 4.9 10.9 8.4 3.1 5.6 3.1
Maximum 31 100 50.1 108.7 - - 31.4 6.28 14 26 31 15 16 12
Minimum 28 52.7 28.2 - 16.7 - - 0 0 0 0 0 0 0
Calm: 9.3%
Calm: 1.2%